sensor_id;sensor_type;location;lat;lon;timestamp;temperature;humidity
7658;DHT22;8462;53.156;8.220;2023-05-10T00:00:42;17.50;99.90
7658;DHT22;8462;53.156;8.220;2023-05-10T00:03:09;17.50;99.90
7658;DHT22;8462;53.156;8.220;2023-05-10T00:05:36;17.50;99.90
7658;DHT22;8462;53.156;8.220;2023-05-10T00:08:03;17.50;99.90
7658;DHT22;8462;53.156;8.220;2023-05-10T00:10:31;17.50;99.90
7658;DHT22;8462;53.156;8.220;2023-05-10T00:12:58;17.40;99.90
7658;DHT22;8462;53.156;8.220;2023-05-10T00:15:25;17.40;99.90
7658;DHT22;8462;53.156;8.220;2023-05-10T00:17:52;17.40;99.90
7658;DHT22;8462;53.156;8.220;2023-05-10T00:20:19;17.50;99.90
7658;DHT22;8462;53.156;8.220;2023-05-10T00:22:46;17.50;99.90
7658;DHT22;8462;53.156;8.220;2023-05-10T00:25:13;17.50;99.90
7658;DHT22;8462;53.156;8.220;2023-05-10T00:27:41;17.50;99.90
7658;DHT22;8462;53.156;8.220;2023-05-10T00:30:08;17.60;99.90
7658;DHT22;8462;53.156;8.220;2023-05-10T00:32:35;17.60;99.90
7658;DHT22;8462;53.156;8.220;2023-05-10T00:35:02;17.60;99.90
7658;DHT22;8462;53.156;8.220;2023-05-10T00:37:29;17.70;99.90
7658;DHT22;8462;53.156;8.220;2023-05-10T00:39:56;17.70;99.90
7658;DHT22;8462;53.156;8.220;2023-05-10T00:42:23;17.70;99.90
7658;DHT22;8462;53.156;8.220;2023-05-10T00:44:53;17.80;99.90
7658;DHT22;8462;53.156;8.220;2023-05-10T00:47:21;17.80;99.90
7658;DHT22;8462;53.156;8.220;2023-05-10T00:49:47;17.70;99.90
7658;DHT22;8462;53.156;8.220;2023-05-10T00:52:16;17.80;99.90
7658;DHT22;8462;53.156;8.220;2023-05-10T00:54:42;17.70;99.90
7658;DHT22;8462;53.156;8.220;2023-05-10T00:57:10;17.80;99.90
7658;DHT22;8462;53.156;8.220;2023-05-10T00:59:37;17.80;99.90
7658;DHT22;8462;53.156;8.220;2023-05-10T01:02:06;17.80;99.90
7658;DHT22;8462;53.156;8.220;2023-05-10T01:04:33;17.80;99.90
7658;DHT22;8462;53.156;8.220;2023-05-10T01:07:02;17.80;99.90
7658;DHT22;8462;53.156;8.220;2023-05-10T01:09:29;17.70;99.90
7658;DHT22;8462;53.156;8.220;2023-05-10T01:11:56;17.60;99.90
7658;DHT22;8462;53.156;8.220;2023-05-10T01:14:24;17.60;99.90
7658;DHT22;8462;53.156;8.220;2023-05-10T01:16:52;17.50;99.90
7658;DHT22;8462;53.156;8.220;2023-05-10T01:19:23;17.50;99.90
7658;DHT22;8462;53.156;8.220;2023-05-10T01:21:58;17.50;99.90
7658;DHT22;8462;53.156;8.220;2023-05-10T01:24:46;17.50;99.90
7658;DHT22;8462;53.156;8.220;2023-05-10T01:27:26;17.50;99.90
7658;DHT22;8462;53.156;8.220;2023-05-10T01:30:33;17.40;99.90
7658;DHT22;8462;53.156;8.220;2023-05-10T01:33:11;17.40;99.90
7658;DHT22;8462;53.156;8.220;2023-05-10T01:35:43;17.30;99.90
7658;DHT22;8462;53.156;8.220;2023-05-10T01:38:18;17.20;99.90
7658;DHT22;8462;53.156;8.220;2023-05-10T01:40:54;17.20;99.90
7658;DHT22;8462;53.156;8.220;2023-05-10T01:43:28;17.30;99.90
7658;DHT22;8462;53.156;8.220;2023-05-10T01:46:02;17.30;99.90
7658;DHT22;8462;53.156;8.220;2023-05-10T01:48:38;17.30;99.90
7658;DHT22;8462;53.156;8.220;2023-05-10T01:51:06;17.20;99.90
7658;DHT22;8462;53.156;8.220;2023-05-10T01:53:34;17.30;99.90
7658;DHT22;8462;53.156;8.220;2023-05-10T01:56:03;17.20;99.90
7658;DHT22;8462;53.156;8.220;2023-05-10T01:58:33;17.30;99.90
7658;DHT22;8462;53.156;8.220;2023-05-10T02:01:03;17.30;99.90
7658;DHT22;8462;53.156;8.220;2023-05-10T02:03:32;17.30;99.90
7658;DHT22;8462;53.156;8.220;2023-05-10T02:06:03;17.40;99.90
7658;DHT22;8462;53.156;8.220;2023-05-10T02:08:30;17.30;99.90
7658;DHT22;8462;53.156;8.220;2023-05-10T02:10:58;17.40;99.90
7658;DHT22;8462;53.156;8.220;2023-05-10T02:13:27;17.40;99.90
7658;DHT22;8462;53.156;8.220;2023-05-10T02:15:57;17.50;99.90
7658;DHT22;8462;53.156;8.220;2023-05-10T02:18:25;17.50;99.90
7658;DHT22;8462;53.156;8.220;2023-05-10T02:20:54;17.30;99.90
7658;DHT22;8462;53.156;8.220;2023-05-10T02:23:23;17.30;99.90
7658;DHT22;8462;53.156;8.220;2023-05-10T02:25:51;17.40;99.90
7658;DHT22;8462;53.156;8.220;2023-05-10T02:28:21;17.40;99.90
7658;DHT22;8462;53.156;8.220;2023-05-10T02:30:51;17.40;99.90
7658;DHT22;8462;53.156;8.220;2023-05-10T02:33:20;17.40;99.90
7658;DHT22;8462;53.156;8.220;2023-05-10T02:35:48;17.50;99.90
7658;DHT22;8462;53.156;8.220;2023-05-10T02:38:15;17.50;99.90
7658;DHT22;8462;53.156;8.220;2023-05-10T02:40:46;17.50;99.90
7658;DHT22;8462;53.156;8.220;2023-05-10T02:43:16;17.50;99.90
7658;DHT22;8462;53.156;8.220;2023-05-10T02:45:46;17.50;99.90
7658;DHT22;8462;53.156;8.220;2023-05-10T02:48:13;17.50;99.90
7658;DHT22;8462;53.156;8.220;2023-05-10T02:50:42;17.60;99.90
7658;DHT22;8462;53.156;8.220;2023-05-10T02:53:17;17.60;99.90
7658;DHT22;8462;53.156;8.220;2023-05-10T02:55:50;17.60;99.90
7658;DHT22;8462;53.156;8.220;2023-05-10T02:58:18;17.60;99.90
7658;DHT22;8462;53.156;8.220;2023-05-10T03:00:46;17.60;99.90
7658;DHT22;8462;53.156;8.220;2023-05-10T03:03:13;17.60;99.90
7658;DHT22;8462;53.156;8.220;2023-05-10T03:05:40;17.60;99.90
7658;DHT22;8462;53.156;8.220;2023-05-10T03:08:07;17.60;99.90
7658;DHT22;8462;53.156;8.220;2023-05-10T03:10:47;17.60;99.90
7658;DHT22;8462;53.156;8.220;2023-05-10T03:13:25;17.60;99.90
7658;DHT22;8462;53.156;8.220;2023-05-10T03:15:59;17.70;99.90
7658;DHT22;8462;53.156;8.220;2023-05-10T03:18:38;17.70;99.90
7658;DHT22;8462;53.156;8.220;2023-05-10T03:21:11;17.70;99.90
7658;DHT22;8462;53.156;8.220;2023-05-10T03:23:43;17.60;99.90
7658;DHT22;8462;53.156;8.220;2023-05-10T03:26:15;17.50;99.90
7658;DHT22;8462;53.156;8.220;2023-05-10T03:28:45;17.40;99.90
7658;DHT22;8462;53.156;8.220;2023-05-10T03:31:14;17.40;99.90
7658;DHT22;8462;53.156;8.220;2023-05-10T03:33:48;17.40;99.90
7658;DHT22;8462;53.156;8.220;2023-05-10T03:36:19;17.30;99.90
7658;DHT22;8462;53.156;8.220;2023-05-10T03:38:46;17.40;99.90
7658;DHT22;8462;53.156;8.220;2023-05-10T03:41:13;17.30;99.90
7658;DHT22;8462;53.156;8.220;2023-05-10T03:43:40;17.20;99.90
7658;DHT22;8462;53.156;8.220;2023-05-10T03:46:09;17.20;99.90
7658;DHT22;8462;53.156;8.220;2023-05-10T03:48:35;17.20;99.90
7658;DHT22;8462;53.156;8.220;2023-05-10T03:51:03;17.10;99.90
7658;DHT22;8462;53.156;8.220;2023-05-10T03:53:29;17.10;99.90
7658;DHT22;8462;53.156;8.220;2023-05-10T03:55:56;17.10;99.90
7658;DHT22;8462;53.156;8.220;2023-05-10T03:58:23;17.10;99.90
7658;DHT22;8462;53.156;8.220;2023-05-10T04:00:51;17.00;99.90
7658;DHT22;8462;53.156;8.220;2023-05-10T04:03:19;17.00;99.90
7658;DHT22;8462;53.156;8.220;2023-05-10T04:05:46;17.00;99.90
7658;DHT22;8462;53.156;8.220;2023-05-10T04:08:13;16.90;99.90
7658;DHT22;8462;53.156;8.220;2023-05-10T04:10:40;16.90;99.90
7658;DHT22;8462;53.156;8.220;2023-05-10T04:13:07;17.00;99.90
7658;DHT22;8462;53.156;8.220;2023-05-10T04:15:35;16.90;99.90
7658;DHT22;8462;53.156;8.220;2023-05-10T04:18:02;16.90;99.90
7658;DHT22;8462;53.156;8.220;2023-05-10T04:20:32;16.80;99.90
7658;DHT22;8462;53.156;8.220;2023-05-10T04:22:59;16.80;99.90
7658;DHT22;8462;53.156;8.220;2023-05-10T04:25:25;16.70;99.90
7658;DHT22;8462;53.156;8.220;2023-05-10T04:27:52;16.70;99.90
7658;DHT22;8462;53.156;8.220;2023-05-10T04:30:19;16.60;99.90
7658;DHT22;8462;53.156;8.220;2023-05-10T04:32:46;16.70;99.90
7658;DHT22;8462;53.156;8.220;2023-05-10T04:35:13;16.70;99.90
7658;DHT22;8462;53.156;8.220;2023-05-10T04:37:41;16.60;99.90
7658;DHT22;8462;53.156;8.220;2023-05-10T04:40:09;16.60;99.90
7658;DHT22;8462;53.156;8.220;2023-05-10T04:42:36;16.60;99.90
7658;DHT22;8462;53.156;8.220;2023-05-10T04:45:04;16.60;99.90
7658;DHT22;8462;53.156;8.220;2023-05-10T04:47:31;16.60;99.90
7658;DHT22;8462;53.156;8.220;2023-05-10T04:49:58;16.60;99.90
7658;DHT22;8462;53.156;8.220;2023-05-10T04:52:25;16.70;99.90
7658;DHT22;8462;53.156;8.220;2023-05-10T04:54:53;16.60;99.90
7658;DHT22;8462;53.156;8.220;2023-05-10T04:57:20;16.60;99.90
7658;DHT22;8462;53.156;8.220;2023-05-10T04:59:47;16.60;99.90
7658;DHT22;8462;53.156;8.220;2023-05-10T05:02:14;16.60;99.90
7658;DHT22;8462;53.156;8.220;2023-05-10T05:04:41;16.60;99.90
7658;DHT22;8462;53.156;8.220;2023-05-10T05:07:08;16.40;99.90
7658;DHT22;8462;53.156;8.220;2023-05-10T05:09:35;16.40;99.90
7658;DHT22;8462;53.156;8.220;2023-05-10T05:12:04;16.40;99.90
7658;DHT22;8462;53.156;8.220;2023-05-10T05:14:30;16.40;99.90
7658;DHT22;8462;53.156;8.220;2023-05-10T05:16:57;16.40;99.90
7658;DHT22;8462;53.156;8.220;2023-05-10T05:19:25;16.40;99.90
7658;DHT22;8462;53.156;8.220;2023-05-10T05:21:52;16.40;99.90
7658;DHT22;8462;53.156;8.220;2023-05-10T05:24:18;16.40;99.90
7658;DHT22;8462;53.156;8.220;2023-05-10T05:26:45;16.40;99.90
7658;DHT22;8462;53.156;8.220;2023-05-10T05:29:14;16.40;99.90
7658;DHT22;8462;53.156;8.220;2023-05-10T05:31:41;16.40;99.90
7658;DHT22;8462;53.156;8.220;2023-05-10T05:34:08;16.40;99.90
7658;DHT22;8462;53.156;8.220;2023-05-10T05:36:36;16.40;99.90
7658;DHT22;8462;53.156;8.220;2023-05-10T05:39:03;16.40;99.90
7658;DHT22;8462;53.156;8.220;2023-05-10T05:41:30;16.40;99.90
7658;DHT22;8462;53.156;8.220;2023-05-10T05:43:57;16.30;99.90
7658;DHT22;8462;53.156;8.220;2023-05-10T05:46:25;16.30;99.90
7658;DHT22;8462;53.156;8.220;2023-05-10T05:48:52;16.40;99.90
7658;DHT22;8462;53.156;8.220;2023-05-10T05:51:19;16.50;99.90
7658;DHT22;8462;53.156;8.220;2023-05-10T05:53:46;16.50;99.90
7658;DHT22;8462;53.156;8.220;2023-05-10T05:56:13;16.60;99.90
7658;DHT22;8462;53.156;8.220;2023-05-10T05:58:39;16.70;99.90
7658;DHT22;8462;53.156;8.220;2023-05-10T06:01:06;16.70;99.90
7658;DHT22;8462;53.156;8.220;2023-05-10T06:03:36;16.80;99.90
7658;DHT22;8462;53.156;8.220;2023-05-10T06:06:03;16.80;99.90
7658;DHT22;8462;53.156;8.220;2023-05-10T06:08:29;16.80;99.90
7658;DHT22;8462;53.156;8.220;2023-05-10T06:10:56;16.80;99.90
7658;DHT22;8462;53.156;8.220;2023-05-10T06:13:23;16.90;99.90
7658;DHT22;8462;53.156;8.220;2023-05-10T06:15:50;17.00;99.90
7658;DHT22;8462;53.156;8.220;2023-05-10T06:18:17;17.00;99.90
7658;DHT22;8462;53.156;8.220;2023-05-10T06:20:45;17.10;99.90
7658;DHT22;8462;53.156;8.220;2023-05-10T06:23:12;17.10;99.90
7658;DHT22;8462;53.156;8.220;2023-05-10T06:25:39;17.10;99.90
7658;DHT22;8462;53.156;8.220;2023-05-10T06:28:06;17.10;99.90
7658;DHT22;8462;53.156;8.220;2023-05-10T06:30:32;17.10;99.90
7658;DHT22;8462;53.156;8.220;2023-05-10T06:32:59;17.20;99.90
7658;DHT22;8462;53.156;8.220;2023-05-10T06:35:26;17.30;99.90
7658;DHT22;8462;53.156;8.220;2023-05-10T06:37:54;17.40;99.90
7658;DHT22;8462;53.156;8.220;2023-05-10T06:40:21;17.50;99.90
7658;DHT22;8462;53.156;8.220;2023-05-10T06:42:48;17.60;99.90
7658;DHT22;8462;53.156;8.220;2023-05-10T06:45:17;17.60;99.90
7658;DHT22;8462;53.156;8.220;2023-05-10T06:47:43;17.60;99.90
7658;DHT22;8462;53.156;8.220;2023-05-10T06:50:11;17.60;99.90
7658;DHT22;8462;53.156;8.220;2023-05-10T06:52:38;17.70;99.90
7658;DHT22;8462;53.156;8.220;2023-05-10T06:55:07;17.80;99.90
7658;DHT22;8462;53.156;8.220;2023-05-10T06:57:35;17.80;99.90
7658;DHT22;8462;53.156;8.220;2023-05-10T07:00:03;17.90;99.90
7658;DHT22;8462;53.156;8.220;2023-05-10T07:02:30;17.90;99.90
7658;DHT22;8462;53.156;8.220;2023-05-10T07:04:57;18.00;99.90
7658;DHT22;8462;53.156;8.220;2023-05-10T07:07:25;18.00;99.50
7658;DHT22;8462;53.156;8.220;2023-05-10T07:09:52;18.00;99.60
7658;DHT22;8462;53.156;8.220;2023-05-10T07:12:20;18.00;99.70
7658;DHT22;8462;53.156;8.220;2023-05-10T07:14:47;18.00;99.60
7658;DHT22;8462;53.156;8.220;2023-05-10T07:17:14;18.00;99.70
7658;DHT22;8462;53.156;8.220;2023-05-10T07:19:48;18.00;99.70
7658;DHT22;8462;53.156;8.220;2023-05-10T07:22:15;18.00;99.20
7658;DHT22;8462;53.156;8.220;2023-05-10T07:24:42;17.90;99.00
7658;DHT22;8462;53.156;8.220;2023-05-10T07:27:09;17.80;99.50
7658;DHT22;8462;53.156;8.220;2023-05-10T07:29:37;17.80;99.90
7658;DHT22;8462;53.156;8.220;2023-05-10T07:32:05;17.80;99.90
7658;DHT22;8462;53.156;8.220;2023-05-10T07:34:32;17.80;99.90
7658;DHT22;8462;53.156;8.220;2023-05-10T07:36:59;17.80;99.90
7658;DHT22;8462;53.156;8.220;2023-05-10T07:39:26;17.90;99.90
7658;DHT22;8462;53.156;8.220;2023-05-10T07:41:54;18.00;99.70
7658;DHT22;8462;53.156;8.220;2023-05-10T07:44:22;18.00;98.90
7658;DHT22;8462;53.156;8.220;2023-05-10T07:46:50;18.00;98.90
7658;DHT22;8462;53.156;8.220;2023-05-10T07:49:17;17.90;99.10
7658;DHT22;8462;53.156;8.220;2023-05-10T07:51:44;17.90;99.50
7658;DHT22;8462;53.156;8.220;2023-05-10T07:54:14;18.00;99.50
7658;DHT22;8462;53.156;8.220;2023-05-10T07:56:41;18.00;99.50
7658;DHT22;8462;53.156;8.220;2023-05-10T07:59:14;18.10;98.40
7658;DHT22;8462;53.156;8.220;2023-05-10T08:01:42;18.00;98.10
7658;DHT22;8462;53.156;8.220;2023-05-10T08:04:11;18.00;98.10
7658;DHT22;8462;53.156;8.220;2023-05-10T08:06:38;17.90;98.00
7658;DHT22;8462;53.156;8.220;2023-05-10T08:09:05;17.90;98.60
7658;DHT22;8462;53.156;8.220;2023-05-10T08:11:32;17.80;98.70
7658;DHT22;8462;53.156;8.220;2023-05-10T08:13:59;17.80;99.00
7658;DHT22;8462;53.156;8.220;2023-05-10T08:16:26;17.80;98.80
7658;DHT22;8462;53.156;8.220;2023-05-10T08:18:54;17.80;99.20
7658;DHT22;8462;53.156;8.220;2023-05-10T08:21:22;17.90;98.90
7658;DHT22;8462;53.156;8.220;2023-05-10T08:23:49;17.90;98.70
7658;DHT22;8462;53.156;8.220;2023-05-10T08:26:17;18.00;98.60
7658;DHT22;8462;53.156;8.220;2023-05-10T08:28:45;18.10;98.70
7658;DHT22;8462;53.156;8.220;2023-05-10T08:31:12;18.20;98.60
7658;DHT22;8462;53.156;8.220;2023-05-10T08:33:39;18.40;98.20
7658;DHT22;8462;53.156;8.220;2023-05-10T08:36:06;18.40;97.60
7658;DHT22;8462;53.156;8.220;2023-05-10T08:38:35;18.40;98.10
7658;DHT22;8462;53.156;8.220;2023-05-10T08:41:04;18.50;97.80
7658;DHT22;8462;53.156;8.220;2023-05-10T08:43:31;18.50;97.40
7658;DHT22;8462;53.156;8.220;2023-05-10T08:46:00;18.60;97.80
7658;DHT22;8462;53.156;8.220;2023-05-10T08:48:29;18.60;97.20
7658;DHT22;8462;53.156;8.220;2023-05-10T08:50:58;18.80;97.20
7658;DHT22;8462;53.156;8.220;2023-05-10T08:53:26;18.90;97.10
7658;DHT22;8462;53.156;8.220;2023-05-10T08:55:57;19.00;95.90
7658;DHT22;8462;53.156;8.220;2023-05-10T08:58:24;19.00;95.90
7658;DHT22;8462;53.156;8.220;2023-05-10T09:00:52;18.90;95.70
7658;DHT22;8462;53.156;8.220;2023-05-10T09:03:19;18.80;96.00
7658;DHT22;8462;53.156;8.220;2023-05-10T09:05:46;18.60;96.90
7658;DHT22;8462;53.156;8.220;2023-05-10T09:08:14;18.60;97.40
7658;DHT22;8462;53.156;8.220;2023-05-10T09:10:43;18.60;97.00
7658;DHT22;8462;53.156;8.220;2023-05-10T09:13:11;18.60;97.70
7658;DHT22;8462;53.156;8.220;2023-05-10T09:15:39;18.50;97.40
7658;DHT22;8462;53.156;8.220;2023-05-10T09:18:06;18.40;97.20
7658;DHT22;8462;53.156;8.220;2023-05-10T09:20:33;18.30;97.70
7658;DHT22;8462;53.156;8.220;2023-05-10T09:23:00;18.20;97.80
7658;DHT22;8462;53.156;8.220;2023-05-10T09:25:27;18.20;98.70
7658;DHT22;8462;53.156;8.220;2023-05-10T09:27:53;18.10;99.50
7658;DHT22;8462;53.156;8.220;2023-05-10T09:30:26;18.20;99.70
7658;DHT22;8462;53.156;8.220;2023-05-10T09:32:53;18.30;99.60
7658;DHT22;8462;53.156;8.220;2023-05-10T09:35:22;18.30;99.30
7658;DHT22;8462;53.156;8.220;2023-05-10T09:37:53;18.40;99.40
7658;DHT22;8462;53.156;8.220;2023-05-10T09:40:24;18.40;99.10
7658;DHT22;8462;53.156;8.220;2023-05-10T09:42:52;18.30;98.00
7658;DHT22;8462;53.156;8.220;2023-05-10T09:45:21;18.20;98.80
7658;DHT22;8462;53.156;8.220;2023-05-10T09:47:50;18.10;98.80
7658;DHT22;8462;53.156;8.220;2023-05-10T09:50:16;18.10;99.70
7658;DHT22;8462;53.156;8.220;2023-05-10T09:52:49;18.10;99.00
7658;DHT22;8462;53.156;8.220;2023-05-10T09:55:17;18.30;98.90
7658;DHT22;8462;53.156;8.220;2023-05-10T09:57:46;18.40;98.90
7658;DHT22;8462;53.156;8.220;2023-05-10T10:00:17;18.60;98.30
7658;DHT22;8462;53.156;8.220;2023-05-10T10:02:46;18.80;98.20
7658;DHT22;8462;53.156;8.220;2023-05-10T10:05:14;19.00;97.20
7658;DHT22;8462;53.156;8.220;2023-05-10T10:07:41;19.30;97.30
7658;DHT22;8462;53.156;8.220;2023-05-10T10:10:10;19.70;96.60
7658;DHT22;8462;53.156;8.220;2023-05-10T10:12:39;20.10;96.20
7658;DHT22;8462;53.156;8.220;2023-05-10T10:15:08;20.50;94.40
7658;DHT22;8462;53.156;8.220;2023-05-10T10:17:36;20.60;92.80
7658;DHT22;8462;53.156;8.220;2023-05-10T10:20:04;20.60;92.60
7658;DHT22;8462;53.156;8.220;2023-05-10T10:22:33;20.60;92.20
7658;DHT22;8462;53.156;8.220;2023-05-10T10:25:00;20.50;92.40
7658;DHT22;8462;53.156;8.220;2023-05-10T10:27:35;20.30;92.80
7658;DHT22;8462;53.156;8.220;2023-05-10T10:30:11;20.10;93.60
7658;DHT22;8462;53.156;8.220;2023-05-10T10:32:55;20.10;94.00
7658;DHT22;8462;53.156;8.220;2023-05-10T10:35:28;20.10;94.10
7658;DHT22;8462;53.156;8.220;2023-05-10T10:37:57;20.00;93.70
7658;DHT22;8462;53.156;8.220;2023-05-10T10:40:26;19.90;94.60
7658;DHT22;8462;53.156;8.220;2023-05-10T10:42:54;20.00;95.40
7658;DHT22;8462;53.156;8.220;2023-05-10T10:45:23;20.00;94.10
7658;DHT22;8462;53.156;8.220;2023-05-10T10:50:43;19.80;94.20
7658;DHT22;8462;53.156;8.220;2023-05-10T10:53:12;19.80;94.50
7658;DHT22;8462;53.156;8.220;2023-05-10T10:55:46;19.90;95.30
7658;DHT22;8462;53.156;8.220;2023-05-10T10:58:29;20.10;95.00
7658;DHT22;8462;53.156;8.220;2023-05-10T11:01:12;20.20;94.10
7658;DHT22;8462;53.156;8.220;2023-05-10T11:03:41;20.20;93.80
7658;DHT22;8462;53.156;8.220;2023-05-10T11:06:29;20.00;93.70
7658;DHT22;8462;53.156;8.220;2023-05-10T11:08:58;20.00;93.90
7658;DHT22;8462;53.156;8.220;2023-05-10T11:11:25;20.00;94.20
7658;DHT22;8462;53.156;8.220;2023-05-10T11:13:52;20.20;94.70
7658;DHT22;8462;53.156;8.220;2023-05-10T11:16:21;20.40;93.30
7658;DHT22;8462;53.156;8.220;2023-05-10T11:19:07;20.70;93.30
7658;DHT22;8462;53.156;8.220;2023-05-10T11:21:45;20.80;92.30
7658;DHT22;8462;53.156;8.220;2023-05-10T11:24:15;20.80;92.20
7658;DHT22;8462;53.156;8.220;2023-05-10T11:26:42;20.80;91.70
7658;DHT22;8462;53.156;8.220;2023-05-10T11:29:12;20.70;91.70
7658;DHT22;8462;53.156;8.220;2023-05-10T11:31:42;20.60;91.50
7658;DHT22;8462;53.156;8.220;2023-05-10T11:34:10;20.40;92.30
7658;DHT22;8462;53.156;8.220;2023-05-10T11:36:38;20.10;91.90
7658;DHT22;8462;53.156;8.220;2023-05-10T11:39:05;19.90;92.80
7658;DHT22;8462;53.156;8.220;2023-05-10T11:41:34;19.60;92.80
7658;DHT22;8462;53.156;8.220;2023-05-10T11:44:01;19.20;92.70
7658;DHT22;8462;53.156;8.220;2023-05-10T11:46:28;18.90;94.40
7658;DHT22;8462;53.156;8.220;2023-05-10T11:48:59;18.80;95.30
7658;DHT22;8462;53.156;8.220;2023-05-10T11:51:29;18.70;95.60
7658;DHT22;8462;53.156;8.220;2023-05-10T11:53:59;18.80;96.50
7658;DHT22;8462;53.156;8.220;2023-05-10T11:56:26;18.70;96.50
7658;DHT22;8462;53.156;8.220;2023-05-10T11:58:56;18.60;96.70
7658;DHT22;8462;53.156;8.220;2023-05-10T12:01:26;18.60;96.80
7658;DHT22;8462;53.156;8.220;2023-05-10T12:03:55;18.50;96.60
7658;DHT22;8462;53.156;8.220;2023-05-10T12:06:26;18.40;96.50
7658;DHT22;8462;53.156;8.220;2023-05-10T12:08:53;18.30;96.40
7658;DHT22;8462;53.156;8.220;2023-05-10T12:11:24;18.40;97.20
7658;DHT22;8462;53.156;8.220;2023-05-10T12:13:51;18.40;97.40
7658;DHT22;8462;53.156;8.220;2023-05-10T12:16:21;18.50;97.10
7658;DHT22;8462;53.156;8.220;2023-05-10T12:18:49;18.70;96.30
7658;DHT22;8462;53.156;8.220;2023-05-10T12:21:17;18.70;96.40
7658;DHT22;8462;53.156;8.220;2023-05-10T12:23:46;18.70;96.20
7658;DHT22;8462;53.156;8.220;2023-05-10T12:26:13;18.60;96.10
7658;DHT22;8462;53.156;8.220;2023-05-10T12:28:40;18.50;96.30
7658;DHT22;8462;53.156;8.220;2023-05-10T12:31:08;18.40;96.00
7658;DHT22;8462;53.156;8.220;2023-05-10T12:33:40;18.30;96.40
7658;DHT22;8462;53.156;8.220;2023-05-10T12:36:09;18.20;96.50
7658;DHT22;8462;53.156;8.220;2023-05-10T12:38:37;18.10;97.60
7658;DHT22;8462;53.156;8.220;2023-05-10T12:41:07;18.20;97.50
7658;DHT22;8462;53.156;8.220;2023-05-10T12:43:35;18.30;97.90
7658;DHT22;8462;53.156;8.220;2023-05-10T12:46:06;18.40;96.90
7658;DHT22;8462;53.156;8.220;2023-05-10T12:48:34;18.60;97.60
7658;DHT22;8462;53.156;8.220;2023-05-10T12:51:03;18.80;96.90
7658;DHT22;8462;53.156;8.220;2023-05-10T12:53:30;19.00;96.70
7658;DHT22;8462;53.156;8.220;2023-05-10T12:55:57;19.40;96.50
7658;DHT22;8462;53.156;8.220;2023-05-10T12:58:24;19.70;94.80
7658;DHT22;8462;53.156;8.220;2023-05-10T13:00:50;19.90;93.50
7658;DHT22;8462;53.156;8.220;2023-05-10T13:03:18;20.10;93.20
7658;DHT22;8462;53.156;8.220;2023-05-10T13:05:45;20.10;93.10
7658;DHT22;8462;53.156;8.220;2023-05-10T13:08:13;20.20;92.50
7658;DHT22;8462;53.156;8.220;2023-05-10T13:10:40;20.10;92.30
7658;DHT22;8462;53.156;8.220;2023-05-10T13:13:07;20.10;92.30
7658;DHT22;8462;53.156;8.220;2023-05-10T13:15:36;20.10;92.10
7658;DHT22;8462;53.156;8.220;2023-05-10T13:18:03;19.90;92.30
7658;DHT22;8462;53.156;8.220;2023-05-10T13:20:30;19.80;92.30
7658;DHT22;8462;53.156;8.220;2023-05-10T13:22:56;19.70;92.50
7658;DHT22;8462;53.156;8.220;2023-05-10T13:25:25;19.60;92.60
7658;DHT22;8462;53.156;8.220;2023-05-10T13:27:52;19.50;92.80
7658;DHT22;8462;53.156;8.220;2023-05-10T13:30:19;19.40;92.90
7658;DHT22;8462;53.156;8.220;2023-05-10T13:32:46;19.30;93.60
7658;DHT22;8462;53.156;8.220;2023-05-10T13:35:13;19.10;93.60
7658;DHT22;8462;53.156;8.220;2023-05-10T13:37:39;19.10;94.20
7658;DHT22;8462;53.156;8.220;2023-05-10T13:40:07;19.00;93.80
7658;DHT22;8462;53.156;8.220;2023-05-10T13:42:37;18.90;94.00
7658;DHT22;8462;53.156;8.220;2023-05-10T13:45:05;18.90;94.30
7658;DHT22;8462;53.156;8.220;2023-05-10T13:47:32;18.90;94.70
7658;DHT22;8462;53.156;8.220;2023-05-10T13:49:58;19.10;94.90
7658;DHT22;8462;53.156;8.220;2023-05-10T13:52:26;19.30;94.00
7658;DHT22;8462;53.156;8.220;2023-05-10T13:54:53;19.60;94.50
7658;DHT22;8462;53.156;8.220;2023-05-10T13:57:21;19.90;93.60
7658;DHT22;8462;53.156;8.220;2023-05-10T13:59:52;20.40;93.00
7658;DHT22;8462;53.156;8.220;2023-05-10T14:02:19;20.70;91.60
7658;DHT22;8462;53.156;8.220;2023-05-10T14:04:46;20.90;90.30
7658;DHT22;8462;53.156;8.220;2023-05-10T14:07:13;21.10;89.50
7658;DHT22;8462;53.156;8.220;2023-05-10T14:09:40;21.10;88.40
7658;DHT22;8462;53.156;8.220;2023-05-10T14:12:08;21.00;88.60
7658;DHT22;8462;53.156;8.220;2023-05-10T14:14:36;20.80;89.20
7658;DHT22;8462;53.156;8.220;2023-05-10T14:17:04;20.70;90.10
7658;DHT22;8462;53.156;8.220;2023-05-10T14:19:32;20.40;90.20
7658;DHT22;8462;53.156;8.220;2023-05-10T14:22:00;20.30;90.30
7658;DHT22;8462;53.156;8.220;2023-05-10T14:24:27;20.00;90.30
7658;DHT22;8462;53.156;8.220;2023-05-10T14:26:54;19.80;90.20
7658;DHT22;8462;53.156;8.220;2023-05-10T14:29:21;19.60;90.50
7658;DHT22;8462;53.156;8.220;2023-05-10T14:31:49;19.40;91.00
7658;DHT22;8462;53.156;8.220;2023-05-10T14:34:17;19.30;91.70
7658;DHT22;8462;53.156;8.220;2023-05-10T14:36:44;19.30;92.20
7658;DHT22;8462;53.156;8.220;2023-05-10T14:39:11;19.40;92.30
7658;DHT22;8462;53.156;8.220;2023-05-10T14:41:39;19.50;92.00
7658;DHT22;8462;53.156;8.220;2023-05-10T14:44:07;19.60;92.10
7658;DHT22;8462;53.156;8.220;2023-05-10T14:46:33;19.70;91.80
7658;DHT22;8462;53.156;8.220;2023-05-10T14:49:01;19.80;91.70
7658;DHT22;8462;53.156;8.220;2023-05-10T14:51:30;20.00;91.00
7658;DHT22;8462;53.156;8.220;2023-05-10T14:53:57;20.10;90.80
7658;DHT22;8462;53.156;8.220;2023-05-10T14:56:24;20.10;90.80
7658;DHT22;8462;53.156;8.220;2023-05-10T14:58:51;20.20;90.50
7658;DHT22;8462;53.156;8.220;2023-05-10T15:01:18;20.10;90.50
7658;DHT22;8462;53.156;8.220;2023-05-10T15:03:45;20.00;90.40
7658;DHT22;8462;53.156;8.220;2023-05-10T15:06:14;20.00;90.60
7658;DHT22;8462;53.156;8.220;2023-05-10T15:08:42;19.90;90.10
7658;DHT22;8462;53.156;8.220;2023-05-10T15:11:09;19.70;90.40
7658;DHT22;8462;53.156;8.220;2023-05-10T15:13:36;19.60;91.10
7658;DHT22;8462;53.156;8.220;2023-05-10T15:16:04;19.50;90.90
7658;DHT22;8462;53.156;8.220;2023-05-10T15:18:31;19.40;91.20
7658;DHT22;8462;53.156;8.220;2023-05-10T15:20:58;19.40;91.40
7658;DHT22;8462;53.156;8.220;2023-05-10T15:23:25;19.40;91.30
7658;DHT22;8462;53.156;8.220;2023-05-10T15:25:53;19.50;91.50
7658;DHT22;8462;53.156;8.220;2023-05-10T15:28:21;19.60;91.40
7658;DHT22;8462;53.156;8.220;2023-05-10T15:30:48;19.70;91.60
7658;DHT22;8462;53.156;8.220;2023-05-10T15:33:15;19.70;90.70
7658;DHT22;8462;53.156;8.220;2023-05-10T15:35:41;19.70;90.50
7658;DHT22;8462;53.156;8.220;2023-05-10T15:38:09;19.60;90.60
7658;DHT22;8462;53.156;8.220;2023-05-10T15:40:36;19.70;91.10
7658;DHT22;8462;53.156;8.220;2023-05-10T15:43:04;19.80;91.00
7658;DHT22;8462;53.156;8.220;2023-05-10T15:45:32;19.90;90.90
7658;DHT22;8462;53.156;8.220;2023-05-10T15:47:59;19.90;90.40
7658;DHT22;8462;53.156;8.220;2023-05-10T15:50:33;20.10;90.80
7658;DHT22;8462;53.156;8.220;2023-05-10T15:53:01;20.20;88.30
7658;DHT22;8462;53.156;8.220;2023-05-10T15:55:28;20.20;88.60
7658;DHT22;8462;53.156;8.220;2023-05-10T15:57:56;20.30;88.90
7658;DHT22;8462;53.156;8.220;2023-05-10T16:00:25;20.20;87.10
7658;DHT22;8462;53.156;8.220;2023-05-10T16:02:52;20.20;87.50
7658;DHT22;8462;53.156;8.220;2023-05-10T16:05:19;20.20;86.90
7658;DHT22;8462;53.156;8.220;2023-05-10T16:07:46;20.10;86.80
7658;DHT22;8462;53.156;8.220;2023-05-10T16:10:13;20.10;87.70
7658;DHT22;8462;53.156;8.220;2023-05-10T16:12:40;20.20;87.50